createdAt,value
2018-04-15T00:00:29.057Z,178.98
2018-04-15T00:01:31.520Z,188.90
2018-04-15T00:02:34.011Z,201.57
2018-04-15T00:03:38.088Z,179.68
2018-04-15T00:04:41.354Z,196.27
2018-04-15T00:05:43.834Z,196.82
2018-04-15T00:06:46.313Z,203.12
2018-04-15T00:07:49.624Z,196.10
2018-04-15T00:08:52.186Z,181.25
2018-04-15T00:09:54.662Z,197.32
2018-04-15T00:10:57.958Z,191.55
2018-04-15T00:12:00.460Z,181.93
2018-04-15T00:13:03.029Z,189.40
2018-04-15T00:14:06.374Z,171.55
2018-04-15T00:15:09.006Z,173.38
2018-04-15T00:16:11.506Z,186.77
2018-04-15T00:17:14.049Z,194.20
2018-04-15T00:18:16.554Z,186.55
2018-04-15T00:19:19.041Z,187.27
2018-04-15T00:20:22.308Z,183.70
2018-04-15T00:21:25.469Z,184.48
2018-04-15T00:22:28.061Z,191.75
2018-04-15T00:23:30.722Z,202.25
2018-04-15T00:24:33.366Z,201.40
2018-04-15T00:25:35.953Z,205.60
2018-04-15T00:26:38.424Z,210.27
2018-04-15T00:27:40.932Z,219.82
2018-04-15T00:28:43.430Z,222.57
2018-04-15T00:29:45.942Z,221.93
2018-04-15T00:30:49.310Z,205.95
2018-04-15T00:31:51.926Z,201.88
2018-04-15T00:32:54.407Z,202.35
2018-04-15T00:33:57.364Z,212.15
2018-04-15T00:35:00.678Z,223.32
2018-04-15T00:36:03.175Z,199.30
2018-04-15T00:37:05.661Z,215.35
2018-04-15T00:38:08.920Z,219.95
2018-04-15T00:39:11.396Z,190.75
2018-04-15T00:40:13.898Z,231.07
2018-04-15T00:41:17.207Z,211.95
2018-04-15T00:42:20.459Z,212.75
2018-04-15T00:43:22.936Z,216.43
2018-04-15T00:44:25.476Z,216.20
2018-04-15T00:45:28.021Z,227.98
2018-04-15T00:46:31.285Z,217.18
2018-04-15T00:47:33.821Z,221.40
2018-04-15T00:48:36.286Z,226.52
2018-04-15T00:49:38.853Z,219.90
2018-04-15T00:50:41.361Z,219.70
2018-04-15T00:51:44.609Z,214.68
2018-04-15T00:52:47.881Z,215.85
2018-04-15T00:54:02.105Z,232.23
2018-04-15T00:55:04.607Z,218.90
2018-04-15T00:56:07.100Z,214.82
2018-04-15T00:57:10.337Z,229.45
2018-04-15T00:58:13.576Z,221.40
2018-04-15T00:59:16.848Z,203.70
2018-04-15T01:00:19.362Z,196.90
2018-04-15T01:01:21.893Z,222.98
2018-04-15T01:02:24.376Z,216.05
2018-04-15T01:03:26.876Z,217.37
2018-04-15T01:04:29.334Z,217.32
2018-04-15T01:05:31.890Z,236.35
2018-04-15T01:06:34.365Z,210.77
2018-04-15T01:07:36.831Z,219.48
2018-04-15T01:08:40.093Z,212.98
2018-04-15T01:09:42.582Z,208.48
2018-04-15T01:10:45.873Z,238.27
2018-04-15T01:11:49.135Z,206.15
2018-04-15T01:12:51.575Z,206.68
2018-04-15T01:13:54.033Z,214.75
2018-04-15T01:14:56.541Z,187.50
2018-04-15T01:15:59.096Z,187.02
2018-04-15T01:17:01.622Z,187.48
2018-04-15T01:18:04.120Z,190.82
2018-04-15T01:19:07.358Z,195.98
2018-04-15T01:20:10.640Z,198.70
2018-04-15T01:21:13.129Z,203.60
2018-04-15T01:22:15.585Z,195.25
2018-04-15T01:23:18.084Z,200.05
2018-04-15T01:24:21.322Z,201.70
2018-04-15T01:25:24.576Z,217.85
2018-04-15T01:26:28.071Z,209.23
2018-04-15T01:27:30.569Z,198.85
2018-04-15T01:28:33.032Z,196.65
2018-04-15T01:29:35.550Z,193.32
2018-04-15T01:30:38.031Z,213.27
2018-04-15T01:31:40.595Z,197.25
2018-04-15T01:32:43.073Z,185.18
2018-04-15T01:33:46.349Z,189.32
2018-04-15T01:34:48.891Z,185.90
2018-04-15T01:35:51.365Z,191.52
2018-04-15T01:36:54.653Z,200.00
2018-04-15T01:37:57.131Z,198.30
2018-04-15T01:39:00.374Z,193.10
2018-04-15T01:40:03.607Z,180.93
2018-04-15T01:41:06.861Z,189.30
2018-04-15T01:42:10.962Z,197.75
2018-04-15T01:43:13.433Z,184.15
2018-04-15T01:44:15.958Z,177.82
2018-04-15T01:45:18.432Z,191.65
2018-04-15T01:46:20.937Z,177.68
2018-04-15T01:47:23.417Z,176.68
2018-04-15T01:48:25.907Z,176.45
2018-04-15T01:49:28.416Z,184.20
2018-04-15T01:50:30.880Z,187.23
2018-04-15T01:51:33.353Z,178.57
2018-04-15T01:52:36.601Z,195.35
2018-04-15T01:53:39.858Z,178.98
2018-04-15T01:54:42.375Z,181.93
2018-04-15T01:55:44.843Z,170.95
2018-04-15T01:56:47.320Z,164.55
2018-04-15T01:57:49.875Z,164.18
2018-04-15T01:58:52.378Z,178.70
2018-04-15T01:59:54.899Z,173.05
2018-04-15T02:00:57.374Z,170.02
2018-04-15T02:02:00.250Z,166.05
2018-04-15T02:03:03.502Z,184.25
2018-04-15T02:04:06.616Z,165.35
2018-04-15T02:05:09.123Z,180.27
2018-04-15T02:06:11.614Z,170.82
2018-04-15T02:07:14.086Z,172.55
2018-04-15T02:08:16.577Z,169.75
2018-04-15T02:09:19.053Z,158.32
2018-04-15T02:10:22.424Z,175.40
2018-04-15T02:11:24.912Z,159.15
2018-04-15T02:12:28.177Z,157.02
2018-04-15T02:13:30.639Z,154.00
2018-04-15T02:14:33.281Z,152.32
2018-04-15T02:15:35.809Z,157.15
2018-04-15T02:16:38.433Z,161.00
2018-04-15T02:17:40.910Z,182.55
2018-04-15T02:18:43.401Z,154.65
2018-04-15T02:19:45.860Z,158.65
2018-04-15T02:20:48.442Z,157.88
2018-04-15T02:21:50.936Z,153.15
2018-04-15T02:22:53.425Z,160.73
2018-04-15T02:23:56.746Z,169.85
2018-04-15T02:24:59.254Z,155.25
2018-04-15T02:26:01.833Z,170.15
2018-04-15T02:27:04.344Z,159.07
2018-04-15T02:28:06.821Z,176.15
2018-04-15T02:29:09.344Z,163.48
2018-04-15T02:30:11.816Z,161.65
2018-04-15T02:31:14.315Z,179.25
2018-04-15T02:32:16.806Z,175.45
2018-04-15T02:33:19.346Z,179.10
2018-04-15T02:34:21.843Z,182.90
2018-04-15T02:35:24.330Z,168.05
2018-04-15T02:36:26.920Z,183.20
2018-04-15T02:37:29.547Z,160.25
2018-04-15T02:38:32.029Z,173.43
2018-04-15T02:39:35.293Z,176.18
2018-04-15T02:40:37.792Z,170.30
2018-04-15T02:41:41.053Z,164.07
2018-04-15T02:42:44.312Z,162.68
2018-04-15T02:43:46.848Z,181.57
2018-04-15T02:44:49.365Z,163.55
2018-04-15T02:45:51.876Z,176.35
2018-04-15T02:46:55.124Z,159.52
2018-04-15T02:47:57.602Z,153.87
2018-04-15T02:49:00.097Z,150.40
2018-04-15T02:50:02.694Z,164.90
2018-04-15T02:51:05.178Z,151.20
2018-04-15T02:52:07.654Z,147.48
2018-04-15T02:53:10.174Z,150.93
2018-04-15T02:54:12.663Z,148.48
2018-04-15T02:56:24.094Z,150.23
2018-04-15T02:57:26.563Z,148.95
2018-04-15T02:58:29.033Z,144.13
2018-04-15T02:59:32.305Z,157.12
2018-04-15T03:00:34.775Z,159.82
2018-04-15T03:01:37.304Z,149.73
2018-04-15T03:02:39.897Z,155.52
2018-04-15T03:03:42.368Z,151.87
2018-04-15T03:04:45.629Z,144.02
2018-04-15T03:05:48.129Z,143.73
2018-04-15T03:06:50.622Z,149.93
2018-04-15T03:07:53.100Z,139.98
2018-04-15T03:08:56.325Z,150.27
2018-04-15T03:09:58.818Z,155.70
2018-04-15T03:11:01.345Z,150.38
2018-04-15T03:12:03.837Z,153.55
2018-04-15T03:13:06.349Z,158.77
2018-04-15T03:14:10.113Z,160.20
2018-04-15T03:15:12.638Z,157.93
2018-04-15T03:16:15.165Z,165.75
2018-04-15T03:17:17.695Z,152.62
2018-04-15T03:18:20.173Z,150.70
2018-04-15T03:19:22.733Z,155.05
2018-04-15T03:20:25.257Z,155.12
2018-04-15T03:21:28.500Z,162.80
2018-04-15T03:22:31.027Z,146.87
2018-04-15T03:23:33.491Z,149.70
2018-04-15T03:24:35.980Z,144.23
2018-04-15T03:25:38.493Z,158.15
2018-04-15T03:26:41.735Z,161.50
2018-04-15T03:27:45.106Z,151.30
2018-04-15T03:28:47.576Z,152.12
2018-04-15T03:29:50.055Z,145.93
2018-04-15T03:30:52.525Z,156.37
2018-04-15T03:31:55.135Z,148.90
2018-04-15T03:32:57.713Z,148.43
2018-04-15T03:34:00.208Z,151.00
2018-04-15T03:35:02.690Z,144.60
2018-04-15T03:36:05.164Z,137.15
2018-04-15T03:37:07.652Z,146.70
2018-04-15T03:38:10.164Z,137.07
2018-04-15T03:39:12.646Z,137.68
2018-04-15T03:40:15.914Z,134.02
2018-04-15T03:41:19.141Z,135.95
2018-04-15T03:42:22.404Z,152.87
2018-04-15T03:43:25.165Z,148.10
2018-04-15T03:44:27.646Z,136.77
2018-04-15T03:45:30.913Z,154.25
2018-04-15T03:46:33.387Z,140.57
2018-04-15T03:47:35.854Z,143.05
2018-04-15T03:48:38.391Z,139.43
2018-04-15T03:49:40.878Z,149.05
2018-04-15T03:50:44.141Z,148.00
2018-04-15T03:51:46.626Z,143.20
2018-04-15T03:52:49.090Z,140.30
2018-04-15T03:53:51.595Z,134.25
2018-04-15T03:54:54.847Z,149.87
2018-04-15T03:55:58.105Z,151.12
2018-04-15T03:57:00.619Z,143.32
2018-04-15T03:58:03.930Z,151.07
2018-04-15T03:59:06.405Z,142.10
2018-04-15T04:00:08.883Z,146.32
2018-04-15T04:01:11.811Z,142.80
2018-04-15T04:02:14.293Z,133.95
2018-04-15T04:03:16.785Z,157.62
2018-04-15T04:04:20.034Z,143.37
2018-04-15T04:05:23.270Z,151.23
2018-04-15T04:06:26.525Z,140.55
2018-04-15T04:07:29.782Z,139.45
2018-04-15T04:08:32.258Z,146.70
2018-04-15T04:09:34.735Z,145.35
2018-04-15T04:10:37.960Z,135.73
2018-04-15T04:11:41.331Z,148.65
2018-04-15T04:12:43.801Z,149.45
2018-04-15T04:13:46.311Z,154.23
2018-04-15T04:14:49.594Z,144.43
2018-04-15T04:15:52.859Z,143.68
2018-04-15T04:16:55.336Z,135.00
2018-04-15T04:18:09.674Z,139.80
2018-04-15T04:19:24.155Z,142.55
2018-04-15T04:20:39.359Z,140.15
2018-04-15T04:21:54.411Z,143.93
2018-04-15T04:23:08.763Z,134.87
2018-04-15T04:24:23.209Z,148.77
2018-04-15T04:25:37.744Z,149.93
2018-04-15T04:26:40.337Z,138.75
2018-04-15T04:27:42.823Z,150.50
2018-04-15T04:28:46.523Z,144.20
2018-04-15T04:29:48.988Z,156.87
2018-04-15T04:30:52.273Z,142.48
2018-04-15T04:31:55.500Z,138.12
2018-04-15T04:32:58.033Z,151.80
2018-04-15T04:34:00.532Z,141.95
2018-04-15T04:35:03.768Z,136.70
2018-04-15T04:36:07.889Z,140.40
2018-04-15T04:37:10.385Z,138.82
2018-04-15T04:38:12.935Z,137.00
2018-04-15T04:39:15.409Z,133.18
2018-04-15T04:40:18.642Z,135.68
2018-04-15T04:41:21.114Z,136.98
2018-04-15T04:42:23.666Z,131.95
2018-04-15T04:43:26.147Z,129.50
2018-04-15T04:44:28.653Z,131.55
2018-04-15T04:45:31.905Z,123.13
2018-04-15T04:46:35.123Z,123.15
2018-04-15T04:47:37.640Z,123.38
2018-04-15T04:48:40.133Z,122.45
2018-04-15T04:49:42.624Z,127.68
2018-04-15T04:50:46.016Z,122.03
2018-04-15T04:51:48.486Z,124.12
2018-04-15T04:52:51.757Z,121.85
2018-04-15T04:53:54.285Z,129.02
2018-04-15T04:54:56.760Z,109.82
2018-04-15T04:55:59.245Z,117.00
2018-04-15T04:57:01.704Z,127.50
2018-04-15T04:58:04.288Z,117.55
2018-04-15T04:59:06.812Z,113.10
2018-04-15T05:00:09.304Z,121.57
2018-04-15T05:01:12.606Z,116.43
2018-04-15T05:02:15.073Z,110.15
2018-04-15T05:03:18.308Z,109.15
2018-04-15T05:04:21.561Z,117.35
2018-04-15T05:05:24.802Z,109.53
2018-04-15T05:06:28.096Z,111.45
2018-04-15T05:07:30.602Z,110.90
2018-04-15T05:08:33.126Z,107.80
2018-04-15T05:09:35.633Z,101.93
2018-04-15T05:10:38.096Z,111.05
2018-04-15T05:11:40.569Z,107.18
2018-04-15T05:12:43.810Z,106.45
2018-04-15T05:13:46.381Z,102.65
2018-04-15T05:14:48.873Z,107.15
2018-04-15T05:15:52.125Z,108.53
2018-04-15T05:16:55.379Z,105.05
2018-04-15T05:17:57.865Z,114.60
2018-04-15T05:19:01.146Z,104.20
2018-04-15T05:20:03.679Z,107.28
2018-04-15T05:21:06.180Z,96.78
2018-04-15T05:22:09.460Z,97.62
2018-04-15T05:23:11.915Z,104.40
2018-04-15T05:24:14.407Z,101.40
2018-04-15T05:25:16.881Z,101.05
2018-04-15T05:26:19.383Z,97.37
2018-04-15T05:27:21.848Z,95.20
2018-04-15T05:28:25.105Z,91.90
2018-04-15T05:29:27.576Z,103.30
2018-04-15T05:30:30.855Z,86.85
2018-04-15T05:31:34.102Z,88.03
2018-04-15T05:32:37.343Z,90.43
2018-04-15T05:33:40.577Z,91.65
2018-04-15T05:34:43.810Z,87.37
2018-04-15T05:35:46.317Z,86.40
2018-04-15T05:36:48.786Z,85.93
2018-04-15T05:37:51.293Z,85.18
2018-04-15T05:38:53.766Z,79.55
2018-04-15T05:39:56.238Z,86.55
2018-04-15T05:40:59.536Z,87.10
2018-04-15T05:42:01.993Z,79.05
2018-04-15T05:43:04.457Z,80.20
2018-04-15T05:44:07.001Z,80.00
2018-04-15T05:45:09.473Z,85.70
2018-04-15T05:46:11.985Z,87.60
2018-04-15T05:47:14.474Z,81.25
2018-04-15T05:48:16.950Z,83.82
2018-04-15T05:49:20.993Z,84.43
2018-04-15T05:50:23.472Z,75.15
2018-04-15T05:51:25.982Z,77.10
2018-04-15T05:52:29.365Z,75.07
2018-04-15T05:53:31.895Z,75.30
2018-04-15T05:54:34.376Z,73.35
2018-04-15T05:55:37.611Z,71.15
2018-04-15T05:56:40.836Z,69.68
2018-04-15T05:57:43.332Z,74.87
2018-04-15T05:58:45.956Z,69.53
2018-04-15T05:59:48.411Z,69.18
2018-04-15T06:00:50.882Z,76.20
2018-04-15T06:01:53.381Z,72.12
2018-04-15T06:02:56.633Z,74.87
2018-04-15T06:03:59.892Z,74.30
2018-04-15T06:05:02.368Z,75.20
2018-04-15T06:06:04.848Z,69.30
2018-04-15T06:07:07.360Z,69.95
2018-04-15T06:08:09.838Z,70.53
2018-04-15T06:09:12.346Z,66.40
2018-04-15T06:10:14.808Z,70.30
2018-04-15T06:11:17.342Z,73.05
2018-04-15T06:12:20.608Z,68.28
2018-04-15T06:13:23.080Z,69.62
2018-04-15T06:14:25.575Z,66.32
2018-04-15T06:15:28.070Z,64.40
2018-04-15T06:16:31.309Z,65.57
2018-04-15T06:17:34.548Z,72.62
2018-04-15T06:18:37.824Z,62.83
2018-04-15T06:19:40.299Z,69.07
2018-04-15T06:20:42.776Z,65.03
2018-04-15T06:21:45.239Z,63.90
2018-04-15T06:22:47.829Z,61.58
2018-04-15T06:23:50.342Z,58.65
2018-04-15T06:24:52.868Z,62.38
2018-04-15T06:25:55.379Z,58.60
2018-04-15T06:26:58.637Z,54.55
2018-04-15T06:28:01.125Z,60.75
2018-04-15T06:29:03.589Z,58.47
2018-04-15T06:30:06.083Z,60.20
2018-04-15T06:31:09.338Z,53.87
2018-04-15T06:32:12.591Z,59.17
2018-04-15T06:33:15.075Z,54.35
2018-04-15T06:34:17.651Z,60.72
2018-04-15T06:35:20.128Z,50.88
2018-04-15T06:36:22.644Z,56.33
2018-04-15T06:37:25.135Z,51.88
2018-04-15T06:38:27.603Z,59.00
2018-04-15T06:39:30.106Z,51.58
2018-04-15T06:40:32.589Z,51.72
2018-04-15T06:41:35.082Z,52.53
2018-04-15T06:42:37.555Z,50.92
2018-04-15T06:43:40.038Z,47.83
2018-04-15T06:44:42.540Z,44.97
2018-04-15T06:45:45.127Z,48.05
2018-04-15T06:46:47.649Z,44.58
2018-04-15T06:47:50.147Z,40.30
2018-04-15T06:48:52.645Z,40.55
2018-04-15T06:49:55.116Z,45.30
2018-04-15T06:50:58.382Z,42.50
2018-04-15T06:52:00.896Z,45.70
2018-04-15T06:53:03.378Z,50.47
2018-04-15T06:54:05.861Z,41.70
2018-04-15T06:55:08.328Z,81.65
2018-04-15T06:56:10.809Z,38.60
2018-04-15T06:57:13.458Z,42.95
2018-04-15T06:58:15.950Z,39.13
2018-04-15T06:59:18.477Z,40.15
2018-04-15T07:00:20.968Z,39.58
2018-04-15T07:01:24.290Z,38.42
2018-04-15T07:02:26.814Z,42.60
2018-04-15T07:03:29.290Z,37.22
2018-04-15T07:04:31.785Z,36.38
2018-04-15T07:05:34.252Z,37.67
2018-04-15T07:06:36.712Z,36.08
2018-04-15T07:07:39.287Z,31.62
2018-04-15T07:08:41.760Z,31.90
2018-04-15T07:09:44.271Z,39.03
2018-04-15T07:10:46.774Z,33.00
2018-04-15T07:11:50.257Z,35.33
2018-04-15T07:12:52.954Z,33.15
2018-04-15T07:13:55.453Z,33.13
2018-04-15T07:14:58.688Z,31.02
2018-04-15T07:16:01.989Z,28.75
2018-04-15T07:17:04.480Z,29.10
2018-04-15T07:18:06.985Z,31.33
2018-04-15T07:19:10.251Z,28.05
2018-04-15T07:20:12.743Z,25.60
2018-04-15T07:21:15.220Z,26.10
2018-04-15T07:22:17.745Z,29.35
2018-04-15T07:23:20.226Z,24.92
2018-04-15T07:24:23.641Z,29.02
2018-04-15T07:25:26.130Z,27.15
2018-04-15T07:26:28.610Z,28.05
2018-04-15T07:27:31.113Z,24.95
2018-04-15T07:28:33.587Z,24.77
2018-04-15T07:29:36.140Z,28.52
2018-04-15T07:30:38.673Z,20.33
2018-04-15T07:31:41.170Z,23.83
2018-04-15T07:32:43.646Z,23.33
2018-04-15T07:33:46.122Z,24.00
2018-04-15T07:34:48.641Z,24.67
2018-04-15T07:35:51.138Z,21.95
2018-04-15T07:36:54.430Z,21.25
2018-04-15T07:37:56.907Z,28.95
2018-04-15T07:38:59.567Z,21.37
2018-04-15T07:40:02.081Z,22.50
2018-04-15T07:41:05.324Z,21.52
2018-04-15T07:42:08.586Z,21.20
2018-04-15T07:43:11.095Z,22.23
2018-04-15T07:44:13.577Z,21.30
2018-04-15T07:45:16.075Z,23.42
2018-04-15T07:46:18.563Z,36.33
2018-04-15T07:47:21.826Z,26.25
2018-04-15T07:48:24.292Z,25.77
2018-04-15T07:49:26.756Z,16.67
2018-04-15T07:50:30.091Z,23.15
2018-04-15T07:51:32.550Z,20.33
2018-04-15T07:52:35.121Z,31.42
2018-04-15T07:53:37.697Z,19.05
2018-04-15T07:54:40.175Z,22.10
2018-04-15T07:55:42.728Z,18.37
2018-04-15T07:56:45.178Z,22.42
2018-04-15T07:57:47.697Z,28.25
2018-04-15T07:58:50.172Z,19.23
2018-04-15T07:59:52.663Z,15.88
2018-04-15T08:00:55.205Z,15.65
2018-04-15T08:01:57.689Z,14.35
2018-04-15T08:03:00.949Z,16.87
2018-04-15T08:04:03.481Z,16.17
2018-04-15T08:05:06.035Z,18.33
2018-04-15T08:06:08.649Z,16.20
2018-04-15T08:07:11.161Z,13.48
2018-04-15T08:08:13.681Z,17.67
2018-04-15T08:09:16.217Z,13.77
2018-04-15T08:10:19.162Z,16.02
2018-04-15T08:11:21.641Z,12.90
2018-04-15T08:12:24.913Z,13.32
2018-04-15T08:13:27.433Z,13.10
2018-04-15T08:14:29.961Z,18.15
2018-04-15T08:15:32.453Z,14.45
2018-04-15T08:16:35.711Z,13.02
2018-04-15T08:17:38.940Z,13.65
2018-04-15T08:18:42.242Z,13.10
2018-04-15T08:19:44.855Z,13.40
2018-04-15T08:20:47.361Z,12.85
2018-04-15T08:21:49.835Z,11.88
2018-04-15T08:22:52.312Z,13.60
2018-04-15T08:23:54.865Z,12.57
2018-04-15T08:24:57.381Z,12.73
2018-04-15T08:25:59.860Z,10.88
2018-04-15T08:27:02.389Z,11.93
2018-04-15T08:28:05.658Z,12.65
2018-04-15T08:29:08.126Z,11.50
2018-04-15T08:30:10.721Z,11.43
2018-04-15T08:31:13.230Z,10.90
2018-04-15T08:32:16.465Z,11.55
2018-04-15T08:33:19.707Z,12.82
2018-04-15T08:34:22.941Z,13.48
2018-04-15T08:35:26.228Z,11.00
2018-04-15T08:36:28.713Z,12.05
2018-04-15T08:37:31.192Z,10.80
2018-04-15T08:38:33.727Z,12.90
2018-04-15T08:39:36.185Z,12.80
2018-04-15T08:40:39.485Z,11.73
2018-04-15T08:41:42.000Z,11.55
2018-04-15T08:42:44.498Z,9.73
2018-04-15T08:43:46.991Z,11.48
2018-04-15T08:44:49.496Z,11.98
2018-04-15T08:45:52.017Z,10.93
2018-04-15T08:46:54.514Z,10.50
2018-04-15T08:47:57.044Z,18.10
2018-04-15T08:48:59.556Z,11.45
2018-04-15T08:50:02.073Z,10.80
2018-04-15T08:51:05.356Z,14.63
2018-04-15T08:52:07.849Z,10.02
2018-04-15T08:53:10.381Z,10.80
2018-04-15T08:54:12.922Z,10.02
2018-04-15T08:55:15.476Z,12.10
2018-04-15T08:56:18.049Z,9.10
2018-04-15T08:57:20.532Z,12.32
2018-04-15T08:58:23.064Z,11.90
2018-04-15T08:59:25.579Z,11.63
2018-04-15T09:00:28.053Z,10.10
2018-04-15T09:01:31.278Z,12.45
2018-04-15T09:02:34.528Z,12.55
2018-04-15T09:03:37.781Z,10.95
2018-04-15T09:04:40.289Z,12.02
2018-04-15T09:05:43.530Z,11.05
2018-04-15T09:06:46.776Z,14.10
2018-04-15T09:07:50.140Z,11.18
2018-04-15T09:08:52.636Z,8.80
2018-04-15T09:09:55.145Z,9.35
2018-04-15T09:10:57.656Z,12.45
2018-04-15T09:12:00.137Z,9.10
2018-04-15T09:13:02.617Z,9.85
2018-04-15T09:14:05.395Z,13.02
2018-04-15T09:15:07.947Z,10.50
2018-04-15T09:16:10.470Z,9.30
2018-04-15T09:17:13.027Z,10.45
2018-04-15T09:18:15.486Z,15.50
2018-04-15T09:19:17.971Z,10.57
2018-04-15T09:20:20.577Z,10.57
2018-04-15T09:21:23.066Z,11.43
2018-04-15T09:22:26.313Z,9.35
2018-04-15T09:23:28.846Z,12.50
2018-04-15T09:24:31.321Z,10.05
2018-04-15T09:25:33.865Z,11.77
2018-04-15T09:26:37.113Z,11.38
2018-04-15T09:27:40.514Z,8.90
2018-04-15T09:28:43.135Z,13.10
2018-04-15T09:29:45.633Z,12.60
2018-04-15T09:30:53.704Z,7.97
2018-04-15T09:31:56.224Z,8.35
2018-04-15T09:32:58.747Z,12.82
2018-04-15T09:34:01.305Z,16.27
2018-04-15T09:35:03.828Z,15.23
2018-04-15T09:36:06.305Z,7.78
2018-04-15T09:37:09.561Z,9.15
2018-04-15T09:38:12.105Z,10.52
2018-04-15T09:39:14.590Z,15.27
2018-04-15T09:40:17.866Z,7.45
2018-04-15T09:41:20.337Z,8.23
2018-04-15T09:42:22.808Z,46.33
2018-04-15T09:43:26.093Z,9.23
2018-04-15T09:44:28.599Z,6.90
2018-04-15T09:45:31.100Z,10.73
2018-04-15T09:46:33.580Z,9.05
2018-04-15T09:47:37.578Z,9.93
2018-04-15T09:48:40.063Z,10.43
2018-04-15T09:49:44.059Z,19.02
2018-04-15T09:50:47.328Z,13.35
2018-04-15T09:51:49.821Z,8.60
2018-04-15T09:52:53.085Z,9.73
2018-04-15T09:53:55.549Z,9.30
2018-04-15T09:54:58.046Z,10.18
2018-04-15T09:56:00.580Z,7.90
2018-04-15T09:57:03.509Z,7.22
2018-04-15T09:58:05.996Z,11.68
2018-04-15T09:59:09.242Z,8.90
2018-04-15T10:00:12.470Z,9.65
2018-04-15T10:01:16.505Z,9.77
2018-04-15T10:02:19.010Z,6.85
2018-04-15T10:03:21.465Z,10.00
2018-04-15T10:04:23.990Z,8.98
2018-04-15T10:05:26.700Z,9.05
2018-04-15T10:06:29.195Z,7.05
2018-04-15T10:07:31.678Z,7.95
2018-04-15T10:08:34.182Z,6.22
2018-04-15T10:09:36.668Z,6.15
2018-04-15T10:10:39.158Z,8.82
2018-04-15T10:11:41.695Z,7.32
2018-04-15T10:12:44.932Z,6.85
2018-04-15T10:13:48.155Z,7.80
2018-04-15T10:14:50.627Z,6.72
2018-04-15T10:15:53.170Z,11.48
2018-04-15T10:16:55.731Z,9.55
2018-04-15T10:17:58.198Z,8.25
2018-04-15T10:19:00.647Z,7.85
2018-04-15T10:20:03.149Z,19.00
2018-04-15T10:21:05.659Z,6.90
2018-04-15T10:22:09.042Z,9.10
2018-04-15T10:23:11.547Z,8.45
2018-04-15T10:24:14.040Z,6.47
2018-04-15T10:25:16.493Z,8.25
2018-04-15T10:26:19.045Z,9.50
2018-04-15T10:27:21.546Z,15.27
2018-04-15T10:28:24.774Z,6.57
2018-04-15T10:29:28.014Z,5.70
2018-04-15T10:30:31.260Z,6.60
2018-04-15T10:31:34.521Z,11.52
2018-04-15T10:32:37.037Z,9.05
2018-04-15T10:33:39.512Z,4.90
2018-04-15T10:34:42.058Z,6.80
2018-04-15T10:35:45.348Z,6.25
2018-04-15T10:36:47.861Z,7.10
2018-04-15T10:37:50.435Z,5.20
2018-04-15T10:38:53.477Z,6.43
2018-04-15T10:39:56.057Z,7.07
2018-04-15T10:40:58.527Z,7.75
2018-04-15T10:42:01.803Z,14.80
2018-04-15T10:43:05.178Z,6.65
2018-04-15T10:44:07.690Z,5.75
2018-04-15T10:45:10.167Z,6.10
2018-04-15T10:46:12.623Z,4.93
2018-04-15T10:47:16.006Z,4.85
2018-04-15T10:48:18.523Z,6.75
2018-04-15T10:49:20.997Z,4.60
2018-04-15T10:50:23.490Z,8.13
2018-04-15T10:51:25.978Z,7.12
2018-04-15T10:52:29.236Z,7.55
2018-04-15T10:53:31.808Z,8.50
2018-04-15T10:54:34.397Z,6.12
2018-04-15T10:55:36.906Z,5.37
2018-04-15T10:56:40.169Z,7.57
2018-04-15T10:57:42.651Z,6.10
2018-04-15T10:58:45.156Z,13.73
2018-04-15T10:59:47.680Z,5.20
2018-04-15T11:00:50.188Z,10.05
2018-04-15T11:01:52.703Z,6.25
2018-04-15T11:02:55.165Z,4.53
2018-04-15T11:03:57.654Z,5.35
2018-04-15T11:05:00.144Z,4.72
2018-04-15T11:06:04.159Z,4.53
2018-04-15T11:07:06.620Z,4.15
2018-04-15T11:08:09.864Z,5.68
2018-04-15T11:09:13.122Z,6.28
2018-04-15T11:10:16.409Z,6.03
2018-04-15T11:11:18.910Z,6.22
2018-04-15T11:12:21.397Z,9.73
2018-04-15T11:13:24.634Z,7.72
2018-04-15T11:14:27.189Z,4.75
2018-04-15T11:15:29.652Z,5.62
2018-04-15T11:16:32.164Z,5.03
2018-04-15T11:17:34.692Z,7.75
2018-04-15T11:18:37.193Z,5.15
2018-04-15T11:19:39.707Z,5.35
2018-04-15T11:20:42.936Z,4.43
2018-04-15T11:21:46.200Z,4.60
2018-04-15T11:22:48.670Z,5.60
2018-04-15T11:23:51.309Z,7.03
2018-04-15T11:24:54.569Z,5.55
2018-04-15T11:25:57.039Z,3.80
2018-04-15T11:26:59.531Z,4.35
2018-04-15T11:28:02.809Z,4.47
2018-04-15T11:29:05.298Z,6.72
2018-04-15T11:30:08.533Z,5.15
2018-04-15T11:31:11.038Z,3.22
2018-04-15T11:32:13.509Z,3.97
2018-04-15T11:33:15.993Z,5.55
2018-04-15T11:34:18.615Z,6.53
2018-04-15T11:35:21.081Z,4.55
2018-04-15T11:36:23.631Z,3.55
2018-04-15T11:37:26.109Z,5.00
2018-04-15T11:38:28.692Z,2.90
2018-04-15T11:39:31.191Z,3.17
2018-04-15T11:40:33.684Z,2.90
2018-04-15T11:41:36.925Z,3.22
2018-04-15T11:42:40.256Z,3.37
2018-04-15T11:43:42.716Z,3.53
2018-04-15T11:44:45.983Z,3.55
2018-04-15T11:45:48.513Z,3.85
2018-04-15T11:46:51.540Z,4.62
2018-04-15T11:47:54.104Z,3.62
2018-04-15T11:48:56.630Z,2.70
2018-04-15T11:49:59.182Z,2.80
2018-04-15T11:51:02.987Z,2.90
2018-04-15T11:52:05.518Z,2.50
2018-04-15T11:53:07.993Z,2.10
2018-04-15T11:54:11.260Z,6.20
2018-04-15T11:55:13.754Z,2.92
2018-04-15T11:56:16.241Z,5.37
2018-04-15T11:57:18.708Z,2.00
2018-04-15T11:58:21.978Z,5.30
2018-04-15T11:59:24.434Z,4.68
2018-04-15T12:00:27.006Z,2.20
2018-04-15T12:01:30.236Z,2.05
2018-04-15T12:02:32.802Z,2.47
2018-04-15T12:03:35.267Z,6.35
2018-04-15T12:04:37.863Z,2.30
2018-04-15T12:05:40.346Z,3.25
2018-04-15T12:06:43.665Z,2.25
2018-04-15T12:07:46.147Z,15.07
2018-04-15T12:08:49.093Z,9.73
2018-04-15T12:09:51.571Z,5.30
2018-04-15T12:10:54.073Z,2.35
2018-04-15T12:11:56.536Z,2.28
2018-04-15T12:12:59.769Z,2.50
2018-04-15T12:14:02.998Z,2.53
2018-04-15T12:15:05.469Z,2.70
2018-04-15T12:16:07.949Z,2.37
2018-04-15T12:17:10.410Z,3.60
2018-04-15T12:18:12.893Z,5.45
2018-04-15T12:19:15.457Z,7.03
2018-04-15T12:20:17.958Z,12.73
2018-04-15T12:21:20.425Z,3.05
2018-04-15T12:22:22.933Z,4.15
2018-04-15T12:23:26.191Z,2.25
2018-04-15T12:24:28.667Z,2.87
2018-04-15T12:25:31.136Z,2.47
2018-04-15T12:26:33.623Z,14.43
2018-04-15T12:27:36.743Z,3.90
2018-04-15T12:28:39.229Z,6.18
2018-04-15T12:29:41.715Z,6.43
2018-04-15T12:30:45.001Z,4.15
2018-04-15T12:31:47.524Z,13.50
2018-04-15T12:32:50.078Z,22.05
2018-04-15T12:33:52.747Z,3.72
2018-04-15T12:34:55.210Z,1.98
2018-04-15T12:35:57.696Z,4.90
2018-04-15T12:37:01.426Z,10.68
2018-04-15T12:38:05.424Z,6.78
2018-04-15T12:39:08.752Z,10.07
2018-04-15T12:40:12.065Z,2.97
2018-04-15T12:41:14.606Z,5.85
2018-04-15T12:42:18.457Z,6.60
2018-04-15T12:43:20.941Z,6.53
2018-04-15T12:44:24.270Z,3.47
2018-04-15T12:45:26.793Z,8.45
2018-04-15T12:46:29.331Z,5.43
2018-04-15T12:47:31.898Z,4.55
2018-04-15T12:48:34.385Z,16.83
2018-04-15T12:49:36.873Z,12.00
2018-04-15T12:50:39.411Z,8.15
2018-04-15T12:51:42.647Z,15.57
2018-04-15T12:52:45.880Z,3.33
2018-04-15T12:53:49.168Z,21.48
2018-04-15T12:54:51.766Z,7.40
2018-04-15T12:55:55.252Z,7.85
2018-04-15T12:56:57.732Z,4.60
2018-04-15T12:58:00.214Z,4.75
2018-04-15T12:59:03.550Z,7.37
2018-04-15T13:00:06.087Z,3.72
2018-04-15T13:01:08.581Z,5.50
2018-04-15T13:02:11.869Z,5.03
2018-04-15T13:03:14.338Z,4.87
2018-04-15T13:04:16.876Z,3.10
2018-04-15T13:05:19.444Z,4.75
2018-04-15T13:06:21.914Z,4.15
2018-04-15T13:07:25.157Z,2.55
2018-04-15T13:08:27.668Z,5.65
2018-04-15T13:09:30.893Z,3.15
2018-04-15T13:10:33.382Z,4.32
2018-04-15T13:11:35.838Z,3.10
2018-04-15T13:12:38.303Z,10.80
2018-04-15T13:13:40.755Z,3.08
2018-04-15T13:14:43.228Z,5.35
2018-04-15T13:15:46.496Z,3.15
2018-04-15T13:16:48.969Z,8.68
2018-04-15T13:17:52.209Z,5.37
2018-04-15T13:18:54.718Z,7.40
2018-04-15T13:19:57.227Z,7.78
2018-04-15T13:20:59.754Z,6.12
2018-04-15T13:22:02.228Z,3.17
2018-04-15T13:23:05.479Z,3.97
2018-04-15T13:24:07.941Z,3.10
2018-04-15T13:25:10.434Z,4.45
2018-04-15T13:26:13.810Z,3.35
2018-04-15T13:27:16.280Z,3.92